WetterOnline ( http://www.wetteronline.de )

Wetter aktuell Hockweiler

Aktuelles Wetter: Trier/Petrisberg (273m)

6-stündlich | Neueste Meldungen
Ortszeit Temperatur Wetter
Mi, 20.03. 13:00 12.0° C wolkig
Mi, 20.03. 7:00 -1.4° C wolkenlos
Mi, 20.03. 1:00 1.1° C wolkenlos
Di, 19.03. 19:00 8.5° C wolkenlos
Di, 19.03. 13:00 8.9° C wolkenlos
Di, 19.03. 7:00 -1.0° C fast wolkenlos
Di, 19.03. 1:00 3.1° C wolkig
Mo, 18.03. 19:00 6.9° C bedeckt
Ortszeit Temperatur Wetter
Mi, 20.03. 18:00 12.2° C leicht bewölkt
Mi, 20.03. 17:50 12.2° C leicht bewölkt
Mi, 20.03. 17:40 12.5° C leicht bewölkt
Mi, 20.03. 17:30 12.8° C wolkenlos
Mi, 20.03. 17:20 12.8° C wolkenlos
Mi, 20.03. 17:10 12.8° C leicht bewölkt
Mi, 20.03. 17:00 13.2° C wolkig
Mi, 20.03. 16:30 13.1° C fast wolkenlos
Mi, 20.03. 16:00 12.9° C wolkig
Mi, 20.03. 15:30 13.0° C bewölkt
Mi, 20.03. 15:00 13.1° C wolkig
Ortszeit Relative Feuchte Sichtweite
Mi, 20.03. 13:00 41% 70 km
Mi, 20.03. 7:00 90% 60 km
Mi, 20.03. 1:00 78% 70 km
Di, 19.03. 19:00 42% 70 km
Di, 19.03. 13:00 49% 65 km
Di, 19.03. 7:00 98% 13 km
Di, 19.03. 1:00 84% 70 km
Mo, 18.03. 19:00 65% 70 km
Ortszeit Relative Feuchte Sichtweite
Mi, 20.03. 18:00 38% 70 km
Mi, 20.03. 17:50 38% -
Mi, 20.03. 17:40 37% -
Mi, 20.03. 17:30 38% 70 km
Mi, 20.03. 17:20 38% -
Mi, 20.03. 17:10 38% -
Mi, 20.03. 17:00 36% 70 km
Mi, 20.03. 16:30 36% 70 km
Mi, 20.03. 16:00 35% 70 km
Mi, 20.03. 15:30 31% 70 km
Mi, 20.03. 15:00 36% 70 km
Ortszeit Niederschlagsmenge Niederschlagsart
Mi, 20.03. 13:00 0.0 l/m2 in 6 Std. -
Mi, 20.03. 7:00 0.0 l/m2 in 12 Std. -
Mi, 20.03. 1:00 0.0 l/m2 in 6 Std. -
Di, 19.03. 19:00 0.0 l/m2 in 12 Std. -
Di, 19.03. 13:00 0.0 l/m2 in 6 Std. -
Di, 19.03. 7:00 0.0 l/m2 in 12 Std. -
Di, 19.03. 1:00 0.0 l/m2 in 6 Std. -
Mo, 18.03. 19:00 0.4 l/m2 in 12 Std. Regen
Ortszeit Niederschlagsmenge Niederschlagsart
Mi, 20.03. 18:00 0.0 l/m2 in 1 Std. -
Mi, 20.03. 17:50 keine Meldung -
Mi, 20.03. 17:40 keine Meldung -
Mi, 20.03. 17:30 0.0 l/m2 in 1 Std. -
Mi, 20.03. 17:20 keine Meldung -
Mi, 20.03. 17:10 keine Meldung -
Mi, 20.03. 17:00 0.0 l/m2 in 1 Std. -
Mi, 20.03. 16:30 0.0 l/m2 in 1 Std. -
Mi, 20.03. 16:00 0.0 l/m2 in 1 Std. -
Mi, 20.03. 15:30 0.0 l/m2 in 1 Std. -
Mi, 20.03. 15:00 0.0 l/m2 in 1 Std. -
Ortszeit Stärke Spitze Richtung
km/h Bft. km/h Grad Sektor
Mi, 20.03. 13:00 6 1 15 300° NW
Mi, 20.03. 7:00 4 1 11 70° O
Mi, 20.03. 1:00 4 1 11 90° O
Di, 19.03. 19:00 4 1 22 50° NO
Di, 19.03. 13:00 4 1 18 170° S
Di, 19.03. 7:00 4 1 14 360° N
Di, 19.03. 1:00 7 2 18 360° N
Mo, 18.03. 19:00 6 1 46 320° NW
Ortszeit Stärke Spitze Richtung
km/h Bft. km/h Grad Sektor
Mi, 20.03. 18:00 9 2 19 30° NO
Mi, 20.03. 17:50 9 2 - 30° NO
Mi, 20.03. 17:40 9 2 - 20° N
Mi, 20.03. 17:30 13 3 19 40° NO
Mi, 20.03. 17:20 13 3 - 40° NO
Mi, 20.03. 17:10 7 2 - 40° NO
Mi, 20.03. 17:00 6 1 15 50° NO
Mi, 20.03. 16:30 4 1 14 70° O
Mi, 20.03. 16:00 7 2 18 10° N
Mi, 20.03. 15:30 7 2 18 50° NO
Mi, 20.03. 15:00 4 1 14 230° SW
Ortszeit Untergrenze Bedeckung Gattung
total tief tief mittel hoch
Mi, 20.03. 13:00 6000 m 8/8 4/8 - - -
Mi, 20.03. 7:00 - 0/8 0/8 - - -
Mi, 20.03. 1:00 - 0/8 0/8 - - -
Di, 19.03. 19:00 - 0/8 0/8 - - -
Di, 19.03. 13:00 - 0/8 0/8 - - -
Di, 19.03. 7:00 60 m 1/8 1/8 - - -
Di, 19.03. 1:00 1350 m 6/8 6/8 - - -
Mo, 18.03. 19:00 960 m 8/8 8/8 - - -
Ortszeit Bedeckungsgrad in Achtel und Wolkenuntergrenze
Mi, 20.03. 18:00 3(10500m)
Mi, 20.03. 17:50 3(10500m)
Mi, 20.03. 17:40 4(10500m)
Mi, 20.03. 17:30 4(10500m)
Mi, 20.03. 17:20 keine Wolken
Mi, 20.03. 17:10 2(4200m)
Mi, 20.03. 17:00 5(4200m)
Mi, 20.03. 16:30 1(8100m)
Mi, 20.03. 16:00 6(4500m) 6(7800m) 6(8700m)
Mi, 20.03. 15:30 7(4500m) 8(8700m) 8(9000m)
Mi, 20.03. 15:00 8(4500m) 8(6000m) 8(6900m)
Ortszeit Luftdruck NN (hPa) Tendenz (hPa in 3 Std.)
Mi, 20.03. 13:00 1035 - 0,1
Mi, 20.03. 7:00 1035 + 0,8
Mi, 20.03. 1:00 1034 + 1,1
Di, 19.03. 19:00 1030 + 0,9
Di, 19.03. 13:00 1029 + 0,1
Di, 19.03. 7:00 1028 + 1,7
Di, 19.03. 1:00 1026 + 1,1
Mo, 18.03. 19:00 1022 + 1,6
Ortszeit Luftdruck NN (hPa) Tendenz (hPa in 3 Std.)
Mi, 20.03. 18:00 1034 0,0
Mi, 20.03. 17:50 1034 keine Meldung
Mi, 20.03. 17:40 1034 keine Meldung
Mi, 20.03. 17:30 1034 - 0,2
Mi, 20.03. 17:20 1034 keine Meldung
Mi, 20.03. 17:10 1034 keine Meldung
Mi, 20.03. 17:00 1033 - 0,6
Mi, 20.03. 16:30 1033 - 0,8
Mi, 20.03. 16:00 1034 - 1,0
Mi, 20.03. 15:30 1034 - 1,0
Mi, 20.03. 15:00 1034 - 1,2
Ortszeit Schneehöhe (cm)
Mi, 20.03. 13:00 0
Mi, 20.03. 7:00 0
Mi, 20.03. 1:00 0
Di, 19.03. 19:00 0
Di, 19.03. 13:00 0
Di, 19.03. 7:00 0
Di, 19.03. 1:00 0
Mo, 18.03. 19:00 0
Ortszeit Schneehöhe (cm)
Mi, 20.03. 18:00 0
Mi, 20.03. 17:50 0
Mi, 20.03. 17:40 0
Mi, 20.03. 17:30 0
Mi, 20.03. 17:20 0
Mi, 20.03. 17:10 0
Mi, 20.03. 17:00 0
Mi, 20.03. 16:30 0
Mi, 20.03. 16:00 0
Mi, 20.03. 15:30 0
Mi, 20.03. 15:00 0
Link zu dieser Seite / Seite empfehlen

Das Wetter in ...